Addison, Alabama
Current Conditions -  °F | °C
As of 2:55 PM on Tuesday 27 Jan 2015 (Local Time) from KCMD Reporting Station
Clear Clear  
Wind Chill: 11°   Ceiling: Unl
Heat Index: 11°   Visibility: 10mi
Dew Point: -2°   Wind: 10mph
Humidity: 41%   Direction: 340°NNW
Pressure: 30.06"   Gusts: 17mph
Location:  34.2°N, 87.18°W
Report Text: KCMD 272055Z AUTO 34009G15KT 10SM CLR 11/M02 A3006 RMK AO2 T01061021
Loading
Personal Weather Stations






























Interactive Weather Map New forecast layout! Learn more

10-Day Weather Forecast

Advertisements
Track Severe Weather on mobile